Time;durP1;ratioP1;P1;durP2;ratioP2;P2;SDS_P1;SDS_P2;PMS_P1;PMS_P2;Temp;Humidity;BMP_temperature;BMP_pressure;BME280_temperature;BME280_humidity;BME280_pressure;Samples;Min_cycle;Max_cycle;Signal;HPM_P1;HPM_P2
2020/12/09 00:00:33;;;;;;;20.65;12.68;;;1.90;99.90;;;;;;4937915;29;20177;-49
2020/12/09 00:03:01;;;;;;;27.77;19.63;;;1.90;99.90;;;;;;4937787;29;20200;-44
2020/12/09 00:05:28;;;;;;;21.77;15.48;;;1.90;99.90;;;;;;4937418;29;20268;-43
2020/12/09 00:07:55;;;;;;;24.42;16.33;;;1.90;99.90;;;;;;4937121;29;20189;-48
2020/12/09 00:10:22;;;;;;;30.23;17.33;;;1.90;99.90;;;;;;4936924;29;20181;-47
2020/12/09 00:12:50;;;;;;;30.85;18.17;;;1.90;99.90;;;;;;4936683;29;20244;-51
2020/12/09 00:15:18;;;;;;;30.33;14.30;;;1.90;99.90;;;;;;4936759;29;20224;-51
2020/12/09 00:17:45;;;;;;;29.55;16.48;;;2.00;99.90;;;;;;4936817;29;20205;-51
2020/12/09 00:20:14;;;;;;;20.02;11.65;;;2.10;99.90;;;;;;5098145;23;20240;-56
2020/12/09 00:22:41;;;;;;;21.05;12.93;;;2.10;99.90;;;;;;4939486;29;20201;-49
2020/12/09 00:25:08;;;;;;;29.65;16.90;;;2.10;99.90;;;;;;4937423;29;20216;-50
2020/12/09 00:27:36;;;;;;;19.00;13.38;;;2.10;99.90;;;;;;4936836;29;20177;-48
2020/12/09 00:30:04;;;;;;;25.27;18.92;;;2.20;99.90;;;;;;4936826;29;20185;-48
2020/12/09 00:32:33;;;;;;;20.88;15.75;;;2.10;99.90;;;;;;4935463;29;20196;-49
2020/12/09 00:35:01;;;;;;;20.77;13.00;;;2.20;99.90;;;;;;4936633;29;20333;-49
2020/12/09 00:37:29;;;;;;;23.55;12.45;;;2.20;99.90;;;;;;4936570;29;20217;-46
2020/12/09 00:39:56;;;;;;;32.70;20.67;;;2.20;99.90;;;;;;4936776;29;20596;-49
2020/12/09 00:42:23;;;;;;;28.40;18.02;;;2.10;99.90;;;;;;4936701;29;20185;-48
2020/12/09 00:44:50;;;;;;;18.13;9.90;;;2.20;99.90;;;;;;4936542;29;20208;-53
2020/12/09 00:47:18;;;;;;;25.30;13.55;;;2.20;99.90;;;;;;4935435;29;20224;-48
2020/12/09 00:50:27;;;;;;;26.70;17.88;;;2.10;99.90;;;;;;4937074;29;20244;-51
2020/12/09 00:52:58;;;;;;;36.50;20.33;;;2.20;99.90;;;;;;4937138;29;20166;-46
2020/12/09 00:55:25;;;;;;;45.22;25.05;;;2.20;99.90;;;;;;4935087;29;20263;-49
2020/12/09 00:57:53;;;;;;;26.13;16.85;;;2.20;99.90;;;;;;4936339;29;20189;-50
2020/12/09 01:00:21;;;;;;;27.92;18.38;;;2.30;99.90;;;;;;4935343;29;20626;-52
2020/12/09 01:02:55;;;;;;;43.55;23.40;;;2.40;99.90;;;;;;4935449;29;20558;-51
2020/12/09 01:05:22;;;;;;;29.38;17.98;;;2.40;99.90;;;;;;4935562;29;20276;-48
2020/12/09 01:07:50;;;;;;;31.80;17.33;;;2.40;99.90;;;;;;4936352;29;20189;-51
2020/12/09 01:10:18;;;;;;;19.77;12.70;;;2.40;99.90;;;;;;4934976;29;20188;-47
2020/12/09 01:12:45;;;;;;;26.50;17.23;;;2.30;99.90;;;;;;4936003;29;20626;-50
2020/12/09 01:15:12;;;;;;;28.02;18.40;;;2.30;99.90;;;;;;4935962;29;20232;-49
2020/12/09 01:17:39;;;;;;;25.10;13.90;;;2.20;99.90;;;;;;4935954;29;20216;-50
2020/12/09 01:20:06;;;;;;;37.05;19.52;;;2.20;99.90;;;;;;4936198;29;20719;-49
2020/12/09 01:22:35;;;;;;;22.05;13.07;;;2.20;99.90;;;;;;4935872;29;20207;-47
2020/12/09 01:25:02;;;;;;;24.95;17.35;;;2.30;99.90;;;;;;4935406;29;20705;-49
2020/12/09 01:27:30;;;;;;;21.80;14.93;;;2.30;99.90;;;;;;4935723;29;20248;-47
2020/12/09 01:29:57;;;;;;;19.23;16.25;;;2.30;99.90;;;;;;4935665;29;20188;-53
2020/12/09 01:32:24;;;;;;;25.45;17.33;;;2.30;99.90;;;;;;4935770;29;20193;-51
2020/12/09 01:34:51;;;;;;;19.77;15.45;;;2.40;99.90;;;;;;4935605;29;20213;-50
2020/12/09 01:37:19;;;;;;;25.08;15.00;;;2.40;99.90;;;;;;4935931;29;20587;-52
2020/12/09 01:39:46;;;;;;;31.45;16.75;;;2.40;99.90;;;;;;4935690;29;20187;-49
2020/12/09 01:42:13;;;;;;;23.55;14.90;;;2.40;99.90;;;;;;4935738;29;20181;-53
2020/12/09 01:44:41;;;;;;;23.20;13.32;;;2.50;99.90;;;;;;4935520;29;20197;-53
2020/12/09 01:47:09;;;;;;;33.33;18.05;;;2.50;99.90;;;;;;4935550;29;20236;-54
2020/12/09 01:49:37;;;;;;;30.85;18.83;;;2.40;99.90;;;;;;4936097;29;20196;-47
2020/12/09 01:52:05;;;;;;;23.70;13.30;;;2.50;99.90;;;;;;4935974;29;20247;-50
2020/12/09 01:54:33;;;;;;;29.40;14.65;;;2.50;99.90;;;;;;4935832;29;20184;-47
2020/12/09 01:57:10;;;;;;;27.00;17.63;;;2.40;99.90;;;;;;4934172;29;20188;-49
2020/12/09 01:59:39;;;;;;;27.73;18.52;;;2.40;99.90;;;;;;4935470;29;20646;-52
2020/12/09 02:02:08;;;;;;;20.98;14.60;;;2.40;99.90;;;;;;4935628;29;20220;-48
2020/12/09 02:04:36;;;;;;;19.90;12.43;;;2.50;99.90;;;;;;4935445;29;20724;-50
2020/12/09 02:07:04;;;;;;;24.38;15.88;;;2.40;99.90;;;;;;4935083;29;20306;-56
2020/12/09 02:09:31;;;;;;;29.27;17.27;;;2.40;99.90;;;;;;4934021;29;20205;-48
2020/12/09 02:12:27;;;;;;;21.63;14.70;;;2.40;99.90;;;;;;4935154;29;20247;-49
2020/12/09 02:14:54;;;;;;;28.13;17.30;;;2.40;99.90;;;;;;4935406;29;20217;-51
2020/12/09 02:17:23;;;;;;;22.80;16.83;;;2.40;99.90;;;;;;4935308;29;20570;-48
2020/12/09 02:19:50;;;;;;;29.27;18.33;;;2.40;99.90;;;;;;4935293;29;20203;-48
2020/12/09 02:22:19;;;;;;;30.63;18.92;;;2.50;99.90;;;;;;4935532;29;20630;-47
2020/12/09 02:24:46;;;;;;;28.13;16.77;;;2.40;99.90;;;;;;4935110;29;20716;-51
2020/12/09 02:27:14;;;;;;;22.55;17.35;;;2.30;99.90;;;;;;4935620;29;20560;-48
2020/12/09 02:29:41;;;;;;;38.10;23.05;;;2.40;99.90;;;;;;4935629;29;20192;-48
2020/12/09 02:32:08;;;;;;;23.73;16.08;;;2.40;99.90;;;;;;4936330;29;20185;-47
2020/12/09 02:34:35;;;;;;;21.70;16.60;;;2.40;99.90;;;;;;4936376;29;20189;-50
2020/12/09 02:37:03;;;;;;;26.63;11.80;;;2.40;99.90;;;;;;4939634;29;20555;-52
2020/12/09 02:39:34;;;;;;;23.77;17.15;;;2.50;99.90;;;;;;4939988;29;20190;-47
2020/12/09 02:42:01;;;;;;;24.38;15.48;;;2.30;99.90;;;;;;4939532;29;20579;-49
2020/12/09 02:44:28;;;;;;;28.55;19.85;;;2.30;99.90;;;;;;4938904;29;20232;-51
2020/12/09 02:46:55;;;;;;;26.92;15.88;;;2.30;99.90;;;;;;4938975;29;20188;-50
2020/12/09 02:49:23;;;;;;;24.65;15.90;;;2.30;99.90;;;;;;4937598;29;20265;-53
2020/12/09 02:51:50;;;;;;;29.35;18.23;;;2.30;99.90;;;;;;4938788;29;20177;-53
2020/12/09 02:54:18;;;;;;;27.17;16.45;;;2.30;99.90;;;;;;4939173;29;20268;-50
2020/12/09 02:56:46;;;;;;;19.15;14.20;;;2.30;99.90;;;;;;4938465;29;20316;-53
2020/12/09 02:59:13;;;;;;;22.33;12.13;;;2.30;99.90;;;;;;4939315;29;20189;-52
2020/12/09 03:01:41;;;;;;;32.60;20.15;;;2.30;99.90;;;;;;4938763;29;20244;-55
2020/12/09 03:04:08;;;;;;;23.80;15.05;;;2.20;99.90;;;;;;4938329;29;20213;-53
2020/12/09 03:06:35;;;;;;;30.70;15.43;;;2.20;99.90;;;;;;4938288;29;20231;-48
2020/12/09 03:09:03;;;;;;;35.30;15.65;;;2.20;99.90;;;;;;4938216;29;20177;-48
2020/12/09 03:11:31;;;;;;;27.55;17.20;;;2.30;99.90;;;;;;4938397;29;20193;-47
2020/12/09 03:13:59;;;;;;;23.13;15.25;;;2.30;99.90;;;;;;4938394;29;20173;-50
2020/12/09 03:16:26;;;;;;;28.05;15.75;;;2.30;99.90;;;;;;4937931;29;20212;-51
2020/12/09 03:18:54;;;;;;;27.08;18.00;;;2.30;99.90;;;;;;4938099;29;20272;-50
2020/12/09 03:21:21;;;;;;;32.90;15.57;;;2.20;99.90;;;;;;4938126;29;20196;-47
2020/12/09 03:23:48;;;;;;;25.17;17.60;;;2.20;99.90;;;;;;4937979;29;20735;-50
2020/12/09 03:26:15;;;;;;;22.98;17.20;;;2.30;99.90;;;;;;4937913;29;20213;-52
2020/12/09 03:28:42;;;;;;;27.35;15.18;;;2.30;99.90;;;;;;4937798;29;20240;-52
2020/12/09 03:31:10;;;;;;;27.08;16.35;;;2.30;99.90;;;;;;4938261;29;20762;-50
2020/12/09 03:33:37;;;;;;;20.67;11.95;;;2.20;99.90;;;;;;4938134;29;20185;-57
2020/12/09 03:36:05;;;;;;;25.85;13.77;;;2.20;99.90;;;;;;4937997;29;20299;-53
2020/12/09 03:38:32;;;;;;;31.95;16.70;;;2.20;99.90;;;;;;4937704;29;20193;-53
2020/12/09 03:41:00;;;;;;;21.05;14.82;;;2.20;99.90;;;;;;4937791;29;20181;-54
2020/12/09 03:43:27;;;;;;;27.27;16.73;;;2.20;99.90;;;;;;4937731;29;20247;-49
2020/12/09 03:45:54;;;;;;;32.92;18.25;;;2.20;99.90;;;;;;4936929;29;20304;-48
2020/12/09 03:48:22;;;;;;;28.40;17.13;;;2.20;99.90;;;;;;4937854;29;20244;-47
2020/12/09 03:50:49;;;;;;;21.10;14.38;;;2.20;99.90;;;;;;4938170;29;20689;-51
2020/12/09 03:53:17;;;;;;;33.42;19.23;;;2.30;99.90;;;;;;4939658;29;20259;-49
2020/12/09 03:55:44;;;;;;;32.17;19.75;;;2.30;99.90;;;;;;4938554;29;20705;-55
2020/12/09 03:58:11;;;;;;;30.15;19.17;;;2.30;99.90;;;;;;4939817;29;20189;-51
2020/12/09 04:00:38;;;;;;;29.45;16.83;;;2.30;99.90;;;;;;4941261;29;20189;-55
2020/12/09 04:03:05;;;;;;;35.25;20.75;;;2.40;99.90;;;;;;4950349;29;20197;-54
2020/12/09 04:05:34;;;;;;;21.25;15.90;;;2.40;99.90;;;;;;4948736;29;20384;-54
2020/12/09 04:08:01;;;;;;;25.23;15.98;;;2.30;99.90;;;;;;4946182;29;20220;-49
2020/12/09 04:10:28;;;;;;;30.25;16.88;;;2.40;99.90;;;;;;4941100;29;20193;-54
2020/12/09 04:12:55;;;;;;;30.02;20.45;;;2.40;99.90;;;;;;4938383;29;20260;-52
2020/12/09 04:15:23;;;;;;;31.00;19.15;;;2.40;99.90;;;;;;4938067;29;20209;-51
2020/12/09 04:17:50;;;;;;;35.92;17.92;;;2.40;99.90;;;;;;4937497;29;20188;-47
2020/12/09 04:20:17;;;;;;;30.13;19.80;;;2.30;99.90;;;;;;4937205;29;20572;-52
2020/12/09 04:22:45;;;;;;;21.98;16.58;;;2.30;99.90;;;;;;4937854;29;20638;-47
2020/12/09 04:25:12;;;;;;;30.60;17.25;;;2.40;99.90;;;;;;4937967;29;20225;-48
2020/12/09 04:27:39;;;;;;;33.45;19.98;;;2.30;99.90;;;;;;4938778;29;20615;-50
2020/12/09 04:30:06;;;;;;;32.22;22.10;;;2.20;99.90;;;;;;4938095;29;20173;-53
2020/12/09 04:32:34;;;;;;;25.73;16.50;;;2.30;99.90;;;;;;4938370;29;20714;-47
2020/12/09 04:35:01;;;;;;;22.45;11.82;;;2.30;99.90;;;;;;4936970;29;20216;-49
2020/12/09 04:37:29;;;;;;;22.40;16.20;;;2.30;99.90;;;;;;4936726;29;20262;-57
2020/12/09 04:39:57;;;;;;;27.88;15.88;;;2.30;99.90;;;;;;4935209;29;20293;-52
2020/12/09 04:42:26;;;;;;;32.00;19.17;;;2.30;99.90;;;;;;4936532;29;20566;-51
2020/12/09 04:44:54;;;;;;;26.25;17.25;;;2.20;99.90;;;;;;4935246;29;20327;-52
2020/12/09 04:47:25;;;;;;;29.88;18.02;;;2.20;99.90;;;;;;4936532;29;20670;-45
2020/12/09 04:50:04;;;;;;;39.47;20.10;;;2.20;99.90;;;;;;4936696;29;20181;-50
2020/12/09 04:52:56;;;;;;;39.55;17.95;;;2.20;99.90;;;;;;4936760;29;20646;-49
2020/12/09 04:55:26;;;;;;;25.85;16.40;;;2.20;99.90;;;;;;4937301;29;20231;-47
2020/12/09 04:58:12;;;;;;;28.42;16.80;;;2.20;99.90;;;;;;4936977;29;20189;-48
2020/12/09 05:00:42;;;;;;;37.22;15.80;;;2.10;99.90;;;;;;4936541;29;20200;-49
2020/12/09 05:03:19;;;;;;;33.50;18.80;;;2.20;99.90;;;;;;4936634;29;20193;-53
2020/12/09 05:05:47;;;;;;;16.85;14.00;;;2.10;99.90;;;;;;4936928;29;20205;-49
2020/12/09 05:08:20;;;;;;;27.13;16.83;;;2.10;99.90;;;;;;4938130;29;20685;-50
2020/12/09 05:10:49;;;;;;;32.97;18.05;;;2.10;99.90;;;;;;4937714;29;20176;-48
2020/12/09 05:13:24;;;;;;;39.58;18.00;;;2.10;99.90;;;;;;4937221;29;20690;-48
2020/12/09 05:15:56;;;;;;;22.58;14.05;;;2.20;99.90;;;;;;4936334;29;20216;-54
2020/12/09 05:18:37;;;;;;;26.48;18.45;;;2.00;99.90;;;;;;4936477;29;20271;-52
2020/12/09 05:21:10;;;;;;;23.30;15.27;;;2.00;99.90;;;;;;4936042;29;20196;-54
2020/12/09 05:23:48;;;;;;;19.88;14.48;;;2.10;99.90;;;;;;4936205;29;20288;-49
2020/12/09 05:26:22;;;;;;;41.72;21.40;;;2.00;99.90;;;;;;4935632;29;20682;-54
2020/12/09 05:29:02;;;;;;;30.42;23.02;;;2.00;99.90;;;;;;4935881;29;20181;-51
2020/12/09 05:31:34;;;;;;;21.70;16.48;;;2.00;99.90;;;;;;4935704;29;20189;-51
2020/12/09 05:34:01;;;;;;;29.83;21.20;;;2.00;99.90;;;;;;4935814;29;20181;-50
2020/12/09 05:36:29;;;;;;;30.73;24.10;;;2.00;99.90;;;;;;4935899;29;20244;-50
2020/12/09 05:39:06;;;;;;;31.15;16.13;;;1.90;99.90;;;;;;4936137;29;20591;-47
2020/12/09 05:41:34;;;;;;;31.60;20.67;;;1.90;99.90;;;;;;4935652;29;20538;-57
2020/12/09 05:44:02;;;;;;;36.55;20.23;;;2.00;99.90;;;;;;4935214;29;20229;-59
2020/12/09 05:46:30;;;;;;;43.47;18.02;;;2.00;99.90;;;;;;4935090;29;20212;-60
2020/12/09 05:48:57;;;;;;;28.67;17.48;;;1.90;99.90;;;;;;4935591;29;20193;-58
2020/12/09 05:51:25;;;;;;;28.02;17.42;;;2.00;99.90;;;;;;4935137;29;20185;-60
2020/12/09 05:53:53;;;;;;;35.03;19.33;;;2.00;99.90;;;;;;4935084;29;20272;-55
2020/12/09 05:56:22;;;;;;;32.40;22.55;;;2.00;99.90;;;;;;4934619;29;20209;-59
2020/12/09 05:58:50;;;;;;;26.98;15.73;;;2.00;99.90;;;;;;4935030;29;20197;-58
2020/12/09 06:01:21;;;;;;;23.63;19.30;;;2.00;99.90;;;;;;4935222;29;20264;-58
2020/12/09 06:03:51;;;;;;;31.40;18.63;;;2.00;99.90;;;;;;4934975;29;20335;-58
2020/12/09 06:06:21;;;;;;;29.65;17.50;;;2.00;99.90;;;;;;4933994;29;20276;-57
2020/12/09 06:08:50;;;;;;;27.52;14.98;;;2.00;99.90;;;;;;4935025;29;20197;-59
2020/12/09 06:11:19;;;;;;;24.00;17.23;;;1.90;99.90;;;;;;4934593;29;20215;-54
2020/12/09 06:13:47;;;;;;;32.40;17.02;;;1.90;99.90;;;;;;4934454;29;20188;-60
2020/12/09 06:16:18;;;;;;;35.85;21.00;;;1.90;99.90;;;;;;4935060;29;20223;-54
2020/12/09 06:18:47;;;;;;;33.63;20.23;;;1.90;99.90;;;;;;4935246;29;20547;-60
2020/12/09 06:21:15;;;;;;;27.98;13.07;;;1.90;99.90;;;;;;4935088;29;20670;-58
2020/12/09 06:23:42;;;;;;;45.83;26.73;;;1.90;99.90;;;;;;4934164;29;20184;-55
2020/12/09 06:26:10;;;;;;;43.90;23.70;;;1.80;99.90;;;;;;4935106;29;20693;-60
2020/12/09 06:28:43;;;;;;;25.52;17.55;;;1.80;99.90;;;;;;4934629;29;20177;-60
2020/12/09 06:31:13;;;;;;;32.17;20.80;;;1.80;99.90;;;;;;4934712;29;20264;-58
2020/12/09 06:33:42;;;;;;;35.22;19.50;;;1.80;99.90;;;;;;4934838;29;20193;-58
2020/12/09 06:36:14;;;;;;;37.78;22.13;;;1.80;99.90;;;;;;4934841;29;20239;-53
2020/12/09 06:39:15;;;;;;;42.22;21.40;;;1.90;99.90;;;;;;4935126;29;20215;-56
2020/12/09 06:42:09;;;;;;;32.05;19.90;;;1.90;99.90;;;;;;4934575;29;20250;-57
2020/12/09 06:44:47;;;;;;;28.88;16.88;;;2.00;99.90;;;;;;4934580;29;20239;-60
2020/12/09 06:47:15;;;;;;;31.52;21.48;;;2.00;99.90;;;;;;4933385;29;20225;-56
2020/12/09 06:49:45;;;;;;;40.50;19.65;;;2.10;99.90;;;;;;4934884;29;20177;-57
2020/12/09 06:52:45;;;;;;;26.13;17.95;;;2.00;99.90;;;;;;4934696;29;20178;-55
2020/12/09 06:55:19;;;;;;;40.05;23.27;;;2.00;99.90;;;;;;4934935;29;20213;-59
2020/12/09 06:57:47;;;;;;;27.80;21.17;;;2.00;99.90;;;;;;4934600;29;20634;-57
2020/12/09 07:00:19;;;;;;;28.35;16.95;;;2.00;99.90;;;;;;4934676;29;20181;-56
2020/12/09 07:02:47;;;;;;;28.67;21.10;;;1.90;99.90;;;;;;4934802;29;20177;-59
2020/12/09 07:05:17;;;;;;;42.72;24.50;;;1.90;99.90;;;;;;4934501;29;20217;-59
2020/12/09 07:07:46;;;;;;;42.83;23.25;;;1.90;99.90;;;;;;4934182;29;20181;-58
2020/12/09 07:10:28;;;;;;;24.50;17.13;;;1.90;99.90;;;;;;4934545;29;20526;-59
2020/12/09 07:13:05;;;;;;;29.95;21.15;;;1.90;99.90;;;;;;4934149;29;20271;-55
2020/12/09 07:15:33;;;;;;;23.42;17.15;;;1.90;99.90;;;;;;4934170;29;20216;-57
2020/12/09 07:18:01;;;;;;;26.05;19.23;;;1.90;99.90;;;;;;4934257;29;20181;-55
2020/12/09 07:20:29;;;;;;;38.05;22.17;;;1.90;99.90;;;;;;4933892;29;20204;-60
2020/12/09 07:22:56;;;;;;;30.75;17.20;;;1.90;99.90;;;;;;4937426;29;20445;-62
2020/12/09 07:25:23;;;;;;;41.80;23.05;;;1.90;99.90;;;;;;4936068;29;20306;-60
2020/12/09 07:27:51;;;;;;;28.75;21.25;;;2.00;99.90;;;;;;4937308;29;20189;-59
2020/12/09 07:30:19;;;;;;;44.17;22.63;;;2.00;99.90;;;;;;4937687;29;20177;-60
2020/12/09 07:32:48;;;;;;;33.42;18.83;;;2.00;99.90;;;;;;4937329;29;20252;-54
2020/12/09 07:35:17;;;;;;;26.13;17.73;;;2.00;99.90;;;;;;4937105;29;20218;-58
2020/12/09 07:37:48;;;;;;;34.67;23.60;;;2.00;99.90;;;;;;4936715;29;20256;-56
2020/12/09 07:40:22;;;;;;;49.60;21.33;;;2.10;99.90;;;;;;4937139;29;20239;-52
2020/12/09 07:43:04;;;;;;;32.67;20.98;;;2.10;99.90;;;;;;4937980;29;20185;-56
2020/12/09 07:45:34;;;;;;;46.00;19.08;;;2.10;99.90;;;;;;4936217;29;20224;-57
2020/12/09 07:48:03;;;;;;;34.38;20.95;;;2.10;99.90;;;;;;4929272;29;20194;-55
2020/12/09 07:50:31;;;;;;;38.72;21.73;;;2.10;99.90;;;;;;4916581;29;20200;-59
2020/12/09 07:52:59;;;;;;;26.70;14.43;;;2.10;99.90;;;;;;4930339;29;20193;-59
2020/12/09 07:55:27;;;;;;;37.00;22.33;;;2.20;99.90;;;;;;4937833;29;20219;-58
2020/12/09 07:58:04;;;;;;;44.20;19.88;;;2.10;99.90;;;;;;4938109;29;20190;-60
2020/12/09 08:00:35;;;;;;;30.58;21.48;;;2.20;99.90;;;;;;4938082;29;20177;-59
2020/12/09 08:03:03;;;;;;;38.50;18.70;;;2.20;99.90;;;;;;4936267;29;20204;-57
2020/12/09 08:05:35;;;;;;;36.38;19.85;;;2.20;99.90;;;;;;4936692;29;20224;-55
2020/12/09 08:08:08;;;;;;;44.00;21.98;;;2.20;99.90;;;;;;4936885;29;20648;-59
2020/12/09 08:10:37;;;;;;;34.25;18.92;;;2.20;99.90;;;;;;5439187;23;20182;-73
2020/12/09 08:13:07;;;;;;;35.67;19.15;;;2.30;99.90;;;;;;4953207;28;20216;-76
2020/12/09 08:15:36;;;;;;;37.92;22.52;;;2.30;99.90;;;;;;4956418;28;20655;-76
2020/12/09 08:18:04;;;;;;;37.53;21.55;;;2.30;99.90;;;;;;4959679;28;20223;-79
2020/12/09 08:20:44;;;;;;;25.50;17.33;;;2.40;99.90;;;;;;4960281;28;20262;-78
2020/12/09 08:23:15;;;;;;;22.33;17.15;;;2.30;99.90;;;;;;4939893;29;20270;-80
2020/12/09 08:25:47;;;;;;;30.85;17.17;;;2.30;99.90;;;;;;4939740;29;20574;-79
2020/12/09 08:28:19;;;;;;;37.53;20.83;;;2.20;99.90;;;;;;4946401;29;20233;-76
2020/12/09 08:30:47;;;;;;;43.50;16.73;;;2.20;99.90;;;;;;4959761;28;20192;-77
2020/12/09 08:33:23;;;;;;;39.15;21.15;;;2.20;99.90;;;;;;4975799;28;20199;-78
2020/12/09 08:36:00;;;;;;;29.45;21.20;;;2.20;99.90;;;;;;4960025;29;20224;-78
2020/12/09 08:38:37;;;;;;;33.00;19.70;;;2.20;99.90;;;;;;4960400;28;20189;-77
2020/12/09 08:41:27;;;;;;;37.53;22.27;;;2.10;99.90;;;;;;4954488;29;20317;-79
2020/12/09 08:43:57;;;;;;;37.38;17.92;;;2.10;99.90;;;;;;4959378;29;20193;-79
2020/12/09 08:46:25;;;;;;;34.08;17.10;;;2.10;99.90;;;;;;4942840;29;20199;-79
2020/12/09 08:48:54;;;;;;;27.88;20.88;;;2.10;99.90;;;;;;4941691;29;20202;-79
2020/12/09 08:51:26;;;;;;;42.22;18.50;;;2.10;99.90;;;;;;4957297;28;20224;-81
2020/12/09 08:53:55;;;;;;;31.77;17.65;;;2.10;99.90;;;;;;4941110;29;20300;-81
2020/12/09 08:56:25;;;;;;;42.30;25.42;;;2.20;99.90;;;;;;4942409;29;20232;-79
2020/12/09 08:58:53;;;;;;;30.95;17.98;;;2.30;99.90;;;;;;4943897;29;20173;-82
2020/12/09 09:01:20;;;;;;;29.40;21.33;;;2.30;99.90;;;;;;4939460;29;20224;-77
2020/12/09 09:03:52;;;;;;;32.47;17.63;;;2.30;99.90;;;;;;4962018;23;20228;-78
2020/12/09 09:06:25;;;;;;;40.67;21.95;;;2.50;99.90;;;;;;4938689;29;20200;-77
2020/12/09 09:08:54;;;;;;;34.28;18.15;;;2.50;99.90;;;;;;4939797;29;20177;-77
2020/12/09 09:11:23;;;;;;;46.03;23.77;;;2.60;99.90;;;;;;4938803;29;20181;-76
2020/12/09 09:13:52;;;;;;;31.13;19.63;;;2.60;99.90;;;;;;4938351;29;20738;-76
2020/12/09 09:16:47;;;;;;;21.55;17.25;;;2.60;99.90;;;;;;4940184;29;20177;-79
2020/12/09 09:19:16;;;;;;;39.67;21.65;;;2.50;99.90;;;;;;4922004;29;20182;-79
2020/12/09 09:21:51;;;;;;;28.85;17.25;;;2.40;99.90;;;;;;4921452;29;20256;-79
2020/12/09 09:24:19;;;;;;;32.30;17.00;;;2.40;99.90;;;;;;4921365;29;20735;-77
2020/12/09 09:26:47;;;;;;;35.38;18.80;;;2.40;99.90;;;;;;4923138;29;20235;-77
2020/12/09 09:29:14;;;;;;;37.97;20.65;;;2.50;99.90;;;;;;4919966;29;20178;-79
2020/12/09 09:31:43;;;;;;;36.00;22.75;;;2.40;99.90;;;;;;4919435;29;20205;-77
2020/12/09 09:34:11;;;;;;;32.92;19.02;;;2.40;99.90;;;;;;4921114;29;20220;-76
2020/12/09 09:36:41;;;;;;;33.50;19.27;;;2.30;99.90;;;;;;4920292;29;20196;-82
2020/12/09 09:39:09;;;;;;;28.70;19.75;;;2.30;99.90;;;;;;4938307;29;20227;-78
2020/12/09 09:41:39;;;;;;;26.52;19.73;;;2.40;99.90;;;;;;4920155;29;20193;-77
2020/12/09 09:44:07;;;;;;;29.75;18.95;;;2.40;99.90;;;;;;4917649;29;20631;-76
2020/12/09 09:46:35;;;;;;;36.78;19.83;;;2.50;99.90;;;;;;4920013;29;20193;-76
2020/12/09 09:49:02;;;;;;;43.00;26.50;;;2.50;99.90;;;;;;4918346;29;20225;-77
2020/12/09 09:51:29;;;;;;;37.15;22.58;;;2.60;99.90;;;;;;4919286;29;20209;-81
2020/12/09 09:53:56;;;;;;;33.35;21.63;;;2.60;99.90;;;;;;4919789;29;20306;-78
2020/12/09 09:56:24;;;;;;;37.38;21.75;;;2.60;99.90;;;;;;4923973;29;20206;-76
2020/12/09 09:58:52;;;;;;;38.42;21.20;;;2.70;99.90;;;;;;4935928;29;20281;-78
2020/12/09 10:01:19;;;;;;;45.20;22.48;;;2.70;99.90;;;;;;4949760;29;20195;-78
2020/12/09 10:03:47;;;;;;;35.70;21.88;;;2.70;99.90;;;;;;4945628;29;20256;-74
2020/12/09 10:06:15;;;;;;;33.10;20.45;;;2.60;99.90;;;;;;4944473;29;20201;-76
2020/12/09 10:08:43;;;;;;;39.35;20.70;;;2.70;99.90;;;;;;4948669;29;20197;-75
2020/12/09 10:11:11;;;;;;;31.80;19.90;;;2.80;99.90;;;;;;4951479;29;20177;-77
2020/12/09 10:13:38;;;;;;;30.67;20.90;;;2.80;99.90;;;;;;4954772;28;20221;-75
2020/12/09 10:16:07;;;;;;;34.95;20.92;;;2.80;99.90;;;;;;4956585;29;20199;-75
2020/12/09 10:18:34;;;;;;;37.72;20.92;;;2.90;99.90;;;;;;4956252;29;20161;-75
2020/12/09 10:21:03;;;;;;;28.38;17.33;;;2.90;99.90;;;;;;4958880;29;20189;-75
2020/12/09 10:23:30;;;;;;;38.65;18.70;;;2.90;99.90;;;;;;4958068;29;20268;-74
2020/12/09 10:25:58;;;;;;;21.65;16.45;;;2.90;99.90;;;;;;4958489;29;20252;-75
2020/12/09 10:28:26;;;;;;;38.05;18.65;;;2.90;99.90;;;;;;4958031;29;20284;-76
2020/12/09 10:30:54;;;;;;;25.52;13.90;;;2.90;99.90;;;;;;4957861;29;20192;-76
2020/12/09 10:33:22;;;;;;;38.60;20.75;;;3.00;99.90;;;;;;4956638;29;20239;-74
2020/12/09 10:35:50;;;;;;;26.50;18.27;;;3.00;99.90;;;;;;4944326;29;20600;-74
2020/12/09 10:38:18;;;;;;;39.42;19.98;;;3.20;99.90;;;;;;4938864;29;20184;-73
2020/12/09 10:40:46;;;;;;;31.73;19.98;;;3.30;99.90;;;;;;4937240;29;20437;-74
2020/12/09 10:43:25;;;;;;;28.52;19.40;;;3.10;99.90;;;;;;4940838;29;20307;-74
2020/12/09 10:46:02;;;;;;;31.25;19.77;;;3.10;99.90;;;;;;4939973;29;20229;-75
2020/12/09 10:48:31;;;;;;;27.17;16.20;;;3.20;99.90;;;;;;4938344;29;20236;-73
2020/12/09 10:50:59;;;;;;;40.95;22.55;;;3.30;99.90;;;;;;4938456;29;20200;-75
2020/12/09 10:53:28;;;;;;;29.17;20.35;;;3.10;99.90;;;;;;4942984;29;20281;-75
2020/12/09 10:55:59;;;;;;;45.03;21.83;;;3.20;99.90;;;;;;4960428;28;20211;-74
2020/12/09 10:58:27;;;;;;;40.53;22.90;;;3.20;99.90;;;;;;4962162;28;20208;-77
2020/12/09 11:00:56;;;;;;;37.70;20.20;;;3.30;99.90;;;;;;4959382;28;20259;-74
2020/12/09 11:03:23;;;;;;;38.28;21.70;;;3.40;99.90;;;;;;4959537;28;20208;-77
2020/12/09 11:05:52;;;;;;;40.20;22.20;;;3.40;99.90;;;;;;4960466;28;20199;-77
2020/12/09 11:08:20;;;;;;;32.58;21.13;;;3.40;99.90;;;;;;4957845;29;20566;-75
2020/12/09 11:10:48;;;;;;;36.33;20.85;;;3.40;99.90;;;;;;4960235;28;20188;-78
2020/12/09 11:13:15;;;;;;;38.33;22.55;;;3.40;99.90;;;;;;4959611;28;20307;-76
2020/12/09 11:15:43;;;;;;;40.60;22.10;;;3.60;99.90;;;;;;4959796;28;20185;-76
2020/12/09 11:18:11;;;;;;;28.98;18.83;;;3.60;99.90;;;;;;4960565;29;20223;-75
2020/12/09 11:20:39;;;;;;;33.30;19.05;;;3.40;99.90;;;;;;4961096;28;20693;-78
2020/12/09 11:23:10;;;;;;;33.35;21.17;;;3.30;99.90;;;;;;4959587;29;20223;-77
2020/12/09 11:25:38;;;;;;;37.47;20.45;;;3.20;99.90;;;;;;4957497;29;20710;-76
2020/12/09 11:28:05;;;;;;;36.55;20.05;;;3.20;99.90;;;;;;4958684;29;20296;-78
2020/12/09 11:30:33;;;;;;;38.67;19.70;;;3.20;99.90;;;;;;4960069;28;20258;-77
2020/12/09 11:33:00;;;;;;;32.35;19.92;;;3.20;99.90;;;;;;4960059;28;20203;-75
2020/12/09 11:35:30;;;;;;;21.42;16.45;;;3.20;99.90;;;;;;4959557;28;20247;-78
2020/12/09 11:37:58;;;;;;;38.65;19.02;;;3.20;99.90;;;;;;4962970;28;20210;-78
2020/12/09 11:40:30;;;;;;;38.78;22.13;;;3.20;99.90;;;;;;4959745;28;20287;-76
2020/12/09 11:42:58;;;;;;;29.25;21.40;;;3.30;99.90;;;;;;4957618;28;20208;-75
2020/12/09 11:45:26;;;;;;;31.45;19.45;;;3.40;99.90;;;;;;4958340;28;20738;-77
2020/12/09 11:47:54;;;;;;;28.23;21.58;;;3.40;99.90;;;;;;4957168;29;20551;-73
2020/12/09 11:50:25;;;;;;;40.40;24.25;;;3.40;99.90;;;;;;4959215;28;20172;-77
2020/12/09 11:52:54;;;;;;;38.17;20.98;;;3.40;99.90;;;;;;4960800;28;20695;-75
2020/12/09 11:55:22;;;;;;;29.50;19.35;;;3.30;99.90;;;;;;4961285;29;20188;-78
2020/12/09 11:57:50;;;;;;;39.08;17.65;;;3.40;99.90;;;;;;4961983;28;20571;-77
2020/12/09 12:00:18;;;;;;;31.00;18.13;;;3.20;99.90;;;;;;4958452;28;20184;-77
2020/12/09 12:02:46;;;;;;;35.20;24.17;;;3.20;99.90;;;;;;4958120;28;20303;-75
2020/12/09 12:05:14;;;;;;;35.13;20.90;;;3.20;99.90;;;;;;4959531;28;20200;-75
2020/12/09 12:07:42;;;;;;;36.25;19.15;;;3.20;99.90;;;;;;4957799;28;20667;-75
2020/12/09 12:10:11;;;;;;;39.22;16.38;;;3.10;99.90;;;;;;4958131;28;20200;-75
2020/12/09 12:12:38;;;;;;;32.08;16.65;;;3.00;99.90;;;;;;4957207;28;20227;-75
2020/12/09 12:15:07;;;;;;;28.80;17.70;;;3.00;99.90;;;;;;4958462;28;20191;-74
2020/12/09 12:17:35;;;;;;;25.92;18.02;;;3.10;99.90;;;;;;4958036;28;20693;-74
2020/12/09 12:20:04;;;;;;;35.22;20.65;;;3.00;99.90;;;;;;4956743;28;20192;-75
2020/12/09 12:22:31;;;;;;;34.55;16.63;;;3.00;99.90;;;;;;4959120;28;20219;-76
2020/12/09 12:25:02;;;;;;;35.08;21.88;;;3.10;99.90;;;;;;4959979;28;20681;-76
2020/12/09 12:27:29;;;;;;;29.55;17.75;;;3.00;99.90;;;;;;4962757;29;20188;-77
2020/12/09 12:29:59;;;;;;;22.33;13.20;;;3.00;99.90;;;;;;4957984;29;20191;-76
2020/12/09 12:32:28;;;;;;;33.58;20.30;;;3.10;99.90;;;;;;4957259;28;20558;-75
2020/12/09 12:34:56;;;;;;;32.97;18.90;;;3.10;99.90;;;;;;4957679;28;20208;-76
2020/12/09 12:37:23;;;;;;;33.08;16.77;;;3.00;99.90;;;;;;4955936;29;20196;-75
2020/12/09 12:39:51;;;;;;;33.70;21.95;;;3.00;99.90;;;;;;4957652;28;20181;-74
2020/12/09 12:42:19;;;;;;;35.97;20.25;;;3.00;99.90;;;;;;4958322;28;20291;-75
2020/12/09 12:44:47;;;;;;;27.40;18.30;;;3.10;99.90;;;;;;4958051;28;20541;-73
2020/12/09 12:47:14;;;;;;;27.20;14.93;;;3.10;99.90;;;;;;4957725;28;20215;-76